Time;durP1;ratioP1;P1;durP2;ratioP2;P2;SDS_P1;SDS_P2;PMS_P1;PMS_P2;Temp;Humidity;BMP_temperature;BMP_pressure;BME280_temperature;BME280_humidity;BME280_pressure;Samples;Min_cycle;Max_cycle;Signal;HPM_P1;HPM_P2
2023/04/22 00:00:28;;;;;;;31.87;25.02;;;30.30;59.80;;;;;;1830079;78;21568;-80
2023/04/22 00:03:00;;;;;;;32.53;25.05;;;30.40;59.70;;;;;;1803205;78;21176;-80
2023/04/22 00:05:32;;;;;;;29.57;23.60;;;30.40;59.70;;;;;;1839607;77;21089;-80
2023/04/22 00:08:03;;;;;;;29.45;25.60;;;30.50;59.60;;;;;;1841276;77;21150;-79
2023/04/22 00:10:34;;;;;;;32.03;25.40;;;30.50;59.60;;;;;;1833772;78;21159;-79
2023/04/22 00:13:05;;;;;;;30.00;25.50;;;30.60;59.60;;;;;;1836059;77;21126;-80
2023/04/22 00:15:36;;;;;;;31.93;25.23;;;30.60;59.80;;;;;;1833924;78;21154;-80
2023/04/22 00:18:12;;;;;;;29.98;26.60;;;30.60;60.00;;;;;;1833802;77;21110;-80
2023/04/22 00:20:41;;;;;;;28.65;24.47;;;30.70;60.30;;;;;;1835231;77;21672;-80
2023/04/22 00:23:13;;;;;;;29.98;24.55;;;30.70;60.30;;;;;;1836272;78;21218;-79
2023/04/22 00:25:44;;;;;;;33.33;25.77;;;30.70;60.20;;;;;;1836126;78;21503;-80
2023/04/22 00:28:16;;;;;;;32.63;25.40;;;30.90;60.20;;;;;;1835118;78;21069;-81
2023/04/22 00:30:47;;;;;;;33.85;26.25;;;30.90;60.10;;;;;;1835895;78;21267;-81
2023/04/22 00:33:18;;;;;;;32.00;25.75;;;30.90;60.00;;;;;;1836163;78;21109;-80
2023/04/22 00:35:49;;;;;;;35.33;25.72;;;31.00;60.10;;;;;;1832876;78;21657;-80
2023/04/22 00:38:20;;;;;;;29.77;24.80;;;31.00;60.00;;;;;;1836481;78;21188;-81
2023/04/22 00:40:51;;;;;;;27.98;25.02;;;31.00;59.80;;;;;;1843950;77;21136;-81
2023/04/22 00:43:22;;;;;;;31.70;26.05;;;31.10;59.80;;;;;;1849657;77;21225;-81
2023/04/22 00:45:53;;;;;;;35.65;26.62;;;31.20;59.60;;;;;;1849655;77;21218;-81
2023/04/22 00:48:25;;;;;;;29.50;26.25;;;31.20;59.40;;;;;;1852618;77;21157;-81
2023/04/22 00:50:57;;;;;;;30.35;26.40;;;31.20;59.10;;;;;;1832892;77;21213;-81
2023/04/22 00:53:28;;;;;;;33.08;26.52;;;31.20;59.10;;;;;;1837719;77;21178;-79
2023/04/22 00:56:00;;;;;;;33.65;25.77;;;31.20;59.30;;;;;;1816179;78;21091;-80
2023/04/22 00:58:31;;;;;;;34.08;25.10;;;31.20;59.30;;;;;;1813942;78;21093;-80
2023/04/22 01:01:02;;;;;;;28.00;24.82;;;31.20;59.10;;;;;;1828536;78;21108;-80
2023/04/22 01:03:34;;;;;;;30.15;26.17;;;31.30;59.00;;;;;;1839907;77;21137;-80
2023/04/22 01:06:06;;;;;;;30.08;26.15;;;31.40;58.90;;;;;;1843747;77;21639;-80
2023/04/22 01:08:37;;;;;;;32.67;26.73;;;31.40;58.80;;;;;;1837485;78;21138;-80
2023/04/22 01:11:08;;;;;;;32.40;25.45;;;31.50;58.80;;;;;;1850509;77;21219;-80
2023/04/22 01:13:39;;;;;;;32.55;24.92;;;31.50;58.70;;;;;;1843056;77;21557;-80
2023/04/22 01:16:11;;;;;;;35.98;25.50;;;31.60;58.20;;;;;;1839362;77;21157;-80
2023/04/22 01:18:42;;;;;;;29.12;25.90;;;31.60;58.20;;;;;;1834256;78;21090;-80
2023/04/22 01:21:13;;;;;;;28.47;25.37;;;31.50;58.10;;;;;;1853645;76;21228;-80
2023/04/22 01:23:44;;;;;;;30.02;24.75;;;31.50;58.10;;;;;;1829807;76;21126;-81
2023/04/22 01:26:15;;;;;;;31.27;23.95;;;31.50;58.10;;;;;;1824179;77;21082;-80
2023/04/22 01:28:46;;;;;;;29.20;24.23;;;31.50;58.20;;;;;;1819413;78;21218;-80
2023/04/22 01:31:18;;;;;;;27.95;23.38;;;31.40;57.80;;;;;;1838897;76;21184;-79
2023/04/22 01:33:49;;;;;;;26.07;22.82;;;31.40;57.40;;;;;;1806409;78;21129;-80
2023/04/22 01:36:20;;;;;;;32.42;24.43;;;31.50;57.90;;;;;;1813075;78;21133;-81
2023/04/22 01:38:52;;;;;;;26.60;23.77;;;31.50;57.20;;;;;;1791811;80;21173;-80
2023/04/22 01:41:23;;;;;;;29.12;24.40;;;31.50;57.40;;;;;;1812487;78;21716;-80
2023/04/22 01:43:56;;;;;;;26.70;22.73;;;31.50;57.20;;;;;;1842103;78;21087;-81
2023/04/22 01:46:27;;;;;;;25.23;22.50;;;31.50;56.70;;;;;;1853257;76;21150;-80
2023/04/22 01:48:58;;;;;;;27.10;23.38;;;31.60;56.60;;;;;;1857609;77;22793;-81
2023/04/22 01:51:31;;;;;;;32.45;23.30;;;31.60;56.90;;;;;;1857934;77;21204;-79
2023/04/22 01:54:03;;;;;;;32.30;24.12;;;31.70;56.60;;;;;;1849689;77;21613;-81
2023/04/22 01:56:35;;;;;;;29.40;24.25;;;31.90;56.20;;;;;;1848795;77;21186;-80
2023/04/22 01:59:06;;;;;;;29.23;24.52;;;31.90;56.50;;;;;;1864519;77;21084;-74
2023/04/22 02:01:37;;;;;;;27.73;24.18;;;32.00;56.50;;;;;;1857789;77;21178;-73
2023/04/22 02:04:09;;;;;;;27.20;23.32;;;32.00;56.20;;;;;;1850326;77;21155;-76
2023/04/22 02:06:40;;;;;;;27.07;23.30;;;32.00;56.40;;;;;;1848595;77;21698;-75
2023/04/22 02:09:11;;;;;;;29.40;22.80;;;32.00;56.30;;;;;;1847147;77;21601;-75
2023/04/22 02:11:42;;;;;;;25.35;22.65;;;32.10;56.40;;;;;;1850554;77;21583;-74
2023/04/22 02:14:14;;;;;;;24.35;20.37;;;32.20;54.70;;;;;;1851447;76;21157;-75
2023/04/22 02:16:46;;;;;;;23.75;21.25;;;32.40;54.30;;;;;;1850740;76;21690;-74
2023/04/22 02:19:16;;;;;;;28.15;22.10;;;32.50;54.10;;;;;;1856904;76;21165;-74
2023/04/22 02:21:48;;;;;;;25.68;22.02;;;32.60;54.20;;;;;;1851244;76;21609;-73
2023/04/22 02:24:19;;;;;;;27.20;21.97;;;32.80;54.40;;;;;;1850507;77;21155;-75
2023/04/22 02:26:50;;;;;;;31.42;22.22;;;33.00;54.20;;;;;;1850162;77;21145;-76
2023/04/22 02:29:23;;;;;;;27.67;21.85;;;33.10;53.70;;;;;;1850061;77;21075;-76
2023/04/22 02:31:54;;;;;;;30.80;22.45;;;33.30;53.40;;;;;;1818918;79;21135;-77
2023/04/22 02:34:25;;;;;;;30.82;21.20;;;33.40;52.80;;;;;;1798511;78;21168;-76
2023/04/22 02:36:56;;;;;;;30.70;22.32;;;33.50;52.60;;;;;;1838904;77;21641;-75
2023/04/22 02:39:27;;;;;;;29.42;22.07;;;33.60;52.40;;;;;;1806901;79;21139;-75
2023/04/22 02:41:58;;;;;;;30.60;21.85;;;33.80;52.40;;;;;;1846930;76;21177;-74
2023/04/22 02:44:29;;;;;;;34.67;22.07;;;33.90;51.90;;;;;;1808772;79;22479;-75
2023/04/22 02:47:02;;;;;;;28.07;21.87;;;34.00;51.30;;;;;;1835557;77;21076;-75
2023/04/22 02:49:34;;;;;;;28.32;22.40;;;34.00;51.30;;;;;;1814307;79;21676;-77
2023/04/22 02:52:05;;;;;;;30.80;23.65;;;34.10;51.10;;;;;;1840255;77;21111;-76
2023/04/22 02:54:37;;;;;;;32.42;23.52;;;34.10;50.90;;;;;;1792228;79;21142;-75
2023/04/22 02:57:08;;;;;;;42.80;25.20;;;34.20;50.40;;;;;;1844019;77;21693;-74
2023/04/22 02:59:39;;;;;;;33.83;24.95;;;34.30;50.00;;;;;;1835013;77;21206;-76
2023/04/22 03:02:11;;;;;;;30.95;23.73;;;34.40;49.80;;;;;;1824102;77;21158;-74
2023/04/22 03:04:42;;;;;;;31.85;24.05;;;34.40;49.40;;;;;;1810408;78;21283;-77
2023/04/22 03:07:13;;;;;;;26.93;24.00;;;34.50;49.70;;;;;;1845984;77;21959;-77
2023/04/22 03:09:44;;;;;;;32.88;24.65;;;34.50;49.70;;;;;;1805741;79;21151;-73
2023/04/22 03:12:15;;;;;;;27.77;24.43;;;34.60;50.00;;;;;;1842898;76;21199;-74
2023/04/22 03:14:46;;;;;;;32.30;25.82;;;34.70;50.30;;;;;;1813309;77;21119;-73
2023/04/22 03:17:18;;;;;;;36.33;26.85;;;34.90;50.20;;;;;;1821446;77;21170;-75
2023/04/22 03:19:49;;;;;;;32.28;27.17;;;35.00;50.00;;;;;;1819142;79;21107;-74
2023/04/22 03:22:20;;;;;;;34.80;27.62;;;35.10;49.40;;;;;;1794475;79;21166;-74
2023/04/22 03:24:51;;;;;;;34.10;29.50;;;35.20;49.50;;;;;;1812900;77;21222;-75
2023/04/22 03:27:22;;;;;;;29.90;26.73;;;35.30;49.20;;;;;;1825022;77;21100;-73
2023/04/22 03:29:53;;;;;;;31.75;27.00;;;35.40;49.50;;;;;;1815907;77;21091;-75
2023/04/22 03:32:24;;;;;;;38.05;27.37;;;35.40;49.20;;;;;;1791370;78;21143;-77
2023/04/22 03:34:56;;;;;;;31.68;27.48;;;35.60;49.30;;;;;;1832895;77;21759;-74
2023/04/22 03:37:27;;;;;;;33.55;29.90;;;35.70;48.80;;;;;;1818928;77;21166;-74
2023/04/22 03:39:58;;;;;;;34.23;27.48;;;35.70;48.80;;;;;;1841423;76;21185;-76
2023/04/22 03:42:29;;;;;;;32.42;28.62;;;35.80;48.60;;;;;;1812539;79;21247;-73
2023/04/22 03:45:00;;;;;;;33.38;28.30;;;35.70;48.60;;;;;;1798844;79;21093;-73
2023/04/22 03:47:31;;;;;;;38.17;29.65;;;35.80;48.10;;;;;;1842337;77;21558;-76
2023/04/22 03:50:10;;;;;;;37.40;29.18;;;35.80;48.40;;;;;;1844856;77;21106;-77
2023/04/22 03:52:38;;;;;;;32.00;28.70;;;35.80;49.10;;;;;;1820854;77;21115;-76
2023/04/22 03:55:10;;;;;;;32.13;27.95;;;35.80;48.30;;;;;;1819954;78;21605;-74
2023/04/22 03:57:41;;;;;;;38.15;28.27;;;35.80;48.30;;;;;;1841444;76;21139;-76
2023/04/22 04:00:13;;;;;;;30.90;27.60;;;35.80;48.90;;;;;;1864786;76;21701;-77
2023/04/22 04:02:44;;;;;;;33.13;29.32;;;35.80;49.10;;;;;;1844330;77;21166;-74
2023/04/22 04:05:15;;;;;;;37.67;29.25;;;35.90;48.90;;;;;;1806554;79;21251;-73
2023/04/22 04:07:47;;;;;;;34.73;30.68;;;36.00;48.60;;;;;;1841365;77;21075;-74
2023/04/22 04:10:21;;;;;;;36.90;30.95;;;36.10;48.30;;;;;;1790243;79;21203;-77
2023/04/22 04:12:52;;;;;;;35.60;30.12;;;36.20;48.00;;;;;;1857136;76;21148;-75
2023/04/22 04:15:23;;;;;;;34.85;31.25;;;36.30;48.50;;;;;;1855539;76;21130;-76
2023/04/22 04:17:55;;;;;;;37.98;30.62;;;36.40;48.10;;;;;;1855595;77;21204;-76
2023/04/22 04:20:26;;;;;;;42.30;31.57;;;36.40;47.50;;;;;;1861840;76;21251;-75
2023/04/22 04:22:57;;;;;;;37.10;30.92;;;36.50;48.10;;;;;;1851577;76;21692;-73
2023/04/22 04:25:37;;;;;;;39.92;30.30;;;36.60;47.20;;;;;;1840720;76;21098;-74
2023/04/22 04:28:01;;;;;;;37.13;30.95;;;36.70;47.20;;;;;;1858868;76;21087;-75
2023/04/22 04:30:34;;;;;;;36.05;30.25;;;36.70;46.50;;;;;;1857295;77;21475;-73
2023/04/22 04:33:07;;;;;;;35.03;30.12;;;36.70;47.00;;;;;;1858839;76;21568;-74
2023/04/22 04:35:38;;;;;;;36.93;30.82;;;36.70;47.10;;;;;;1845624;77;21078;-75
2023/04/22 04:38:13;;;;;;;38.70;30.35;;;36.80;46.90;;;;;;1849047;77;21143;-76
2023/04/22 04:40:45;;;;;;;49.00;32.13;;;36.80;46.80;;;;;;1857939;77;21165;-76
2023/04/22 04:43:16;;;;;;;34.95;30.57;;;36.90;46.40;;;;;;1856896;76;21190;-74
2023/04/22 04:45:50;;;;;;;39.65;32.17;;;36.90;46.80;;;;;;1853914;76;21074;-73
2023/04/22 04:48:23;;;;;;;36.08;32.20;;;37.00;46.60;;;;;;1813938;77;21142;-73
2023/04/22 04:50:54;;;;;;;34.78;31.05;;;37.10;45.80;;;;;;1860987;76;21129;-75
2023/04/22 04:53:26;;;;;;;36.90;31.17;;;37.10;45.40;;;;;;1848992;76;21174;-75
2023/04/22 04:55:57;;;;;;;34.98;31.00;;;37.10;45.50;;;;;;1838187;76;21703;-75
2023/04/22 04:58:28;;;;;;;35.92;31.55;;;37.20;45.40;;;;;;1818214;77;21200;-75
2023/04/22 05:00:59;;;;;;;34.78;31.05;;;37.20;45.10;;;;;;1798001;78;21215;-74
2023/04/22 05:03:30;;;;;;;43.23;32.67;;;37.30;45.40;;;;;;1849189;77;21193;-73
2023/04/22 05:06:02;;;;;;;34.73;31.20;;;37.30;45.00;;;;;;1851781;76;21177;-73
2023/04/22 05:08:33;;;;;;;38.65;31.62;;;37.40;45.00;;;;;;1859661;76;21178;-77
2023/04/22 05:11:08;;;;;;;35.98;32.35;;;37.40;45.20;;;;;;1850016;76;21586;-76
2023/04/22 05:13:39;;;;;;;35.05;31.40;;;37.40;45.20;;;;;;1861707;76;21202;-76
2023/04/22 05:16:10;;;;;;;34.90;31.00;;;37.40;45.30;;;;;;1845582;76;21118;-75
2023/04/22 05:18:43;;;;;;;34.13;30.57;;;37.50;45.00;;;;;;1853265;77;21108;-76
2023/04/22 05:21:15;;;;;;;33.63;30.20;;;37.50;45.20;;;;;;1844941;77;21121;-76
2023/04/22 05:23:47;;;;;;;34.50;30.80;;;37.50;45.20;;;;;;1813907;77;21582;-76
2023/04/22 05:26:18;;;;;;;36.30;32.55;;;37.60;44.30;;;;;;1825039;77;21213;-78
2023/04/22 05:28:49;;;;;;;34.20;30.37;;;37.60;44.70;;;;;;1816990;77;21134;-73
2023/04/22 05:31:21;;;;;;;33.40;30.05;;;;;;;;;;1826654;77;21119;-75
2023/04/22 05:33:56;;;;;;;35.58;31.73;;;37.80;44.00;;;;;;1824240;78;21145;-75
2023/04/22 05:36:30;;;;;;;35.48;31.70;;;37.80;44.70;;;;;;1794107;78;21218;-73
2023/04/22 05:39:01;;;;;;;41.02;32.40;;;37.90;44.80;;;;;;1842180;76;21145;-75
2023/04/22 05:41:32;;;;;;;36.98;32.75;;;37.90;45.10;;;;;;1845819;76;21189;-75
2023/04/22 05:44:06;;;;;;;34.48;30.97;;;37.90;44.80;;;;;;1845845;76;21196;-75
2023/04/22 05:46:37;;;;;;;36.77;31.93;;;38.00;44.60;;;;;;1840933;77;21083;-75
2023/04/22 05:49:12;;;;;;;37.67;31.93;;;38.00;44.20;;;;;;1820031;77;21162;-74
2023/04/22 05:51:43;;;;;;;37.83;31.97;;;38.00;44.10;;;;;;1848568;76;21134;-76
2023/04/22 05:54:14;;;;;;;37.03;33.30;;;38.00;44.60;;;;;;1842775;77;21087;-75
2023/04/22 05:56:46;;;;;;;36.70;32.45;;;38.00;44.20;;;;;;1833292;77;21189;-73
2023/04/22 05:59:17;;;;;;;34.48;30.77;;;38.20;44.50;;;;;;1816327;79;21179;-75
2023/04/22 06:01:49;;;;;;;36.40;32.65;;;38.20;44.20;;;;;;1820791;77;21119;-75
2023/04/22 06:04:21;;;;;;;39.18;32.75;;;38.20;44.20;;;;;;1801764;78;21226;-75
2023/04/22 06:06:53;;;;;;;36.63;32.63;;;38.20;44.20;;;;;;1848521;77;21658;-74
2023/04/22 06:09:23;;;;;;;36.73;32.58;;;38.30;44.30;;;;;;1856935;77;21142;-74
2023/04/22 06:11:55;;;;;;;36.73;32.78;;;38.30;44.30;;;;;;1855715;77;21181;-74
2023/04/22 06:14:26;;;;;;;37.28;33.53;;;38.30;44.20;;;;;;1819427;79;21162;-78
2023/04/22 06:16:57;;;;;;;40.90;34.58;;;38.30;44.30;;;;;;1829013;77;21134;-75
2023/04/22 06:19:28;;;;;;;38.00;34.00;;;38.20;44.40;;;;;;1820988;77;21147;-75
2023/04/22 06:21:59;;;;;;;40.17;33.80;;;38.30;44.30;;;;;;1806615;78;21196;-77
2023/04/22 06:24:30;;;;;;;38.85;34.75;;;38.20;44.60;;;;;;1862028;76;21095;-76
2023/04/22 06:27:03;;;;;;;40.88;35.38;;;38.20;44.60;;;;;;1879484;76;21480;-77
2023/04/22 06:29:34;;;;;;;40.08;35.60;;;38.20;44.70;;;;;;1881143;75;21146;-76
2023/04/22 06:32:05;;;;;;;40.10;35.75;;;38.20;44.50;;;;;;1864577;75;21143;-77
2023/04/22 06:34:38;;;;;;;43.38;35.58;;;38.20;44.70;;;;;;1878130;75;21142;-74
2023/04/22 06:37:09;;;;;;;42.53;35.05;;;38.20;44.70;;;;;;1863145;75;21147;-77
2023/04/22 06:39:41;;;;;;;41.83;35.10;;;38.20;44.90;;;;;;1873699;75;21063;-78
2023/04/22 06:42:12;;;;;;;39.80;35.52;;;38.20;44.60;;;;;;1868170;75;21197;-78
2023/04/22 06:44:43;;;;;;;40.55;36.40;;;38.20;44.70;;;;;;1876237;75;21219;-80
2023/04/22 06:47:14;;;;;;;39.48;35.55;;;38.20;44.60;;;;;;1846230;76;21131;-76
2023/04/22 06:49:45;;;;;;;46.53;35.90;;;38.30;44.30;;;;;;1854837;76;21137;-75
2023/04/22 06:52:16;;;;;;;37.60;33.65;;;38.30;44.30;;;;;;1850536;77;21108;-76
2023/04/22 06:54:47;;;;;;;40.52;34.00;;;38.30;44.50;;;;;;1846731;77;21488;-76
2023/04/22 06:57:18;;;;;;;38.70;32.65;;;38.30;44.30;;;;;;1850538;77;21623;-82
2023/04/22 06:59:49;;;;;;;40.12;33.33;;;38.30;44.30;;;;;;1838956;77;21491;-82
2023/04/22 07:02:21;;;;;;;38.00;34.10;;;38.30;44.30;;;;;;1861298;77;21641;-82
2023/04/22 07:04:52;;;;;;;38.83;34.73;;;38.30;44.60;;;;;;1863607;77;21114;-82
2023/04/22 07:07:23;;;;;;;38.50;34.55;;;38.30;43.90;;;;;;1865899;77;21163;-81
2023/04/22 07:09:54;;;;;;;37.53;33.92;;;38.30;44.00;;;;;;1838093;77;21143;-81
2023/04/22 07:12:25;;;;;;;37.20;33.48;;;38.20;44.80;;;;;;1850868;77;21128;-82
2023/04/22 07:14:56;;;;;;;38.78;34.35;;;38.20;44.80;;;;;;1852639;76;21153;-81
2023/04/22 07:17:27;;;;;;;37.03;33.10;;;38.30;45.10;;;;;;1841554;76;21167;-82
2023/04/22 07:19:58;;;;;;;38.80;33.85;;;38.30;45.00;;;;;;1846258;77;21119;-81
2023/04/22 07:22:29;;;;;;;35.88;32.48;;;38.30;44.30;;;;;;1864534;77;21197;-81
2023/04/22 07:25:00;;;;;;;35.63;31.82;;;38.40;44.20;;;;;;1835546;77;21120;-82
2023/04/22 07:27:31;;;;;;;36.23;32.50;;;38.40;44.00;;;;;;1825638;78;21221;-82
2023/04/22 07:30:04;;;;;;;37.85;33.75;;;38.40;44.00;;;;;;1822690;77;21685;-81
2023/04/22 07:32:35;;;;;;;37.55;33.73;;;38.40;43.90;;;;;;1812205;79;21206;-81
2023/04/22 07:35:07;;;;;;;38.02;33.02;;;38.40;44.10;;;;;;1847224;77;21141;-80
2023/04/22 07:37:38;;;;;;;35.35;31.73;;;38.50;43.60;;;;;;1847099;77;21220;-81
2023/04/22 07:40:12;;;;;;;35.60;31.27;;;38.40;43.60;;;;;;1842650;77;21084;-81
2023/04/22 07:42:43;;;;;;;36.63;31.87;;;38.40;43.60;;;;;;1835730;77;21212;-80
2023/04/22 07:45:14;;;;;;;36.70;32.23;;;38.40;43.80;;;;;;1847573;77;21643;-80
2023/04/22 07:47:45;;;;;;;36.33;31.25;;;38.40;43.80;;;;;;1807733;79;21157;-82
2023/04/22 07:50:16;;;;;;;34.18;30.57;;;38.40;43.60;;;;;;1825930;77;21071;-80
2023/04/22 07:52:47;;;;;;;37.17;29.95;;;38.40;43.00;;;;;;1850528;77;21153;-81
2023/04/22 07:55:18;;;;;;;37.98;31.02;;;38.30;43.30;;;;;;1835520;77;21091;-81
2023/04/22 07:57:49;;;;;;;34.15;30.72;;;38.30;43.90;;;;;;1841416;77;21084;-80
2023/04/22 08:00:20;;;;;;;34.80;30.10;;;38.30;43.80;;;;;;1848785;77;21169;-81
2023/04/22 08:02:51;;;;;;;33.83;30.23;;;38.40;43.30;;;;;;1809608;79;21163;-80
2023/04/22 08:05:22;;;;;;;34.88;31.37;;;38.40;43.20;;;;;;1851206;77;21118;-80
2023/04/22 08:07:54;;;;;;;37.35;30.80;;;38.40;43.30;;;;;;1841154;77;21115;-81
2023/04/22 08:10:25;;;;;;;35.05;31.27;;;38.40;43.30;;;;;;1837046;77;21138;-80
2023/04/22 08:12:56;;;;;;;36.60;30.23;;;38.50;43.00;;;;;;1837115;77;21075;-79
2023/04/22 08:15:27;;;;;;;32.25;28.98;;;38.50;43.20;;;;;;1841646;76;21216;-81
2023/04/22 08:17:58;;;;;;;34.30;29.45;;;38.50;43.00;;;;;;1843942;77;21623;-80
2023/04/22 08:20:29;;;;;;;33.67;30.15;;;38.50;43.20;;;;;;1844026;77;21195;-81
2023/04/22 08:23:00;;;;;;;38.50;31.33;;;38.50;43.00;;;;;;1838258;77;21078;-80
2023/04/22 08:25:31;;;;;;;39.73;31.80;;;38.50;42.80;;;;;;1840420;77;21189;-80
2023/04/22 08:28:02;;;;;;;35.28;30.20;;;38.50;42.90;;;;;;1846165;77;21597;-80
2023/04/22 08:30:34;;;;;;;32.90;29.50;;;38.60;42.90;;;;;;1848347;77;21146;-74
2023/04/22 08:33:05;;;;;;;34.50;30.90;;;38.60;42.70;;;;;;1849423;76;21600;-76
2023/04/22 08:35:36;;;;;;;32.05;28.57;;;38.60;42.20;;;;;;1845760;77;21110;-74
2023/04/22 08:38:10;;;;;;;35.03;29.57;;;38.60;42.30;;;;;;1860901;76;21139;-74
2023/04/22 08:40:42;;;;;;;33.20;29.90;;;38.60;42.30;;;;;;1855548;76;21641;-75
2023/04/22 08:43:14;;;;;;;35.52;29.98;;;38.50;42.60;;;;;;1845597;77;21121;-75
2023/04/22 08:45:46;;;;;;;32.98;29.32;;;38.50;42.50;;;;;;1858349;76;21107;-76
2023/04/22 08:48:17;;;;;;;32.35;28.85;;;38.50;42.60;;;;;;1815164;77;21169;-76
2023/04/22 08:50:48;;;;;;;30.85;27.70;;;38.40;42.80;;;;;;1806584;79;21939;-76
2023/04/22 08:53:20;;;;;;;31.23;28.15;;;38.40;42.90;;;;;;1838941;77;21162;-75
2023/04/22 08:55:54;;;;;;;31.42;28.40;;;38.40;43.10;;;;;;1840713;77;21209;-75
2023/04/22 08:58:26;;;;;;;31.45;28.23;;;38.40;42.90;;;;;;1846130;76;21161;-74
2023/04/22 09:00:58;;;;;;;34.73;31.27;;;38.30;43.00;;;;;;1808605;79;21279;-75
2023/04/22 09:03:29;;;;;;;37.28;30.15;;;38.30;43.50;;;;;;1799737;79;21132;-76
2023/04/22 09:06:03;;;;;;;32.80;29.30;;;38.30;43.70;;;;;;1845870;77;21824;-75
2023/04/22 09:08:37;;;;;;;31.87;28.35;;;38.30;43.10;;;;;;1871868;76;21196;-77
2023/04/22 09:11:09;;;;;;;33.18;29.90;;;38.30;43.20;;;;;;1848908;77;21189;-75
2023/04/22 09:13:40;;;;;;;34.25;29.72;;;38.30;43.50;;;;;;1858172;77;21639;-74
2023/04/22 09:16:11;;;;;;;44.18;31.95;;;38.30;43.40;;;;;;1857528;77;21080;-74
2023/04/22 09:18:45;;;;;;;35.63;29.50;;;38.30;43.60;;;;;;1859178;77;21181;-74
2023/04/22 09:21:16;;;;;;;35.15;29.87;;;38.30;43.80;;;;;;1858090;76;21132;-74
2023/04/22 09:23:50;;;;;;;34.20;29.95;;;38.30;43.70;;;;;;1856718;77;21164;-75
2023/04/22 09:26:23;;;;;;;32.73;29.23;;;38.30;44.10;;;;;;1865934;76;21140;-74
2023/04/22 09:29:01;;;;;;;33.20;30.00;;;38.30;44.00;;;;;;1882630;76;21141;-75
2023/04/22 09:31:29;;;;;;;32.95;29.63;;;38.30;43.90;;;;;;1876897;76;21146;-74
2023/04/22 09:34:02;;;;;;;34.05;30.02;;;38.30;43.90;;;;;;1882709;76;21111;-74
2023/04/22 09:36:33;;;;;;;36.45;30.70;;;38.30;44.10;;;;;;1882578;76;21631;-75
2023/04/22 09:39:08;;;;;;;33.65;30.00;;;38.20;43.90;;;;;;1882506;76;21141;-75
2023/04/22 09:41:40;;;;;;;33.77;30.17;;;38.20;44.10;;;;;;1882371;76;21121;-74
2023/04/22 09:44:21;;;;;;;33.58;30.15;;;38.20;44.20;;;;;;1863465;76;21476;-75
2023/04/22 09:46:50;;;;;;;33.38;29.85;;;38.20;44.10;;;;;;1870865;76;21076;-74
2023/04/22 09:49:22;;;;;;;35.65;31.35;;;38.20;44.00;;;;;;1880588;76;21099;-75
2023/04/22 09:52:02;;;;;;;34.35;30.48;;;38.20;44.40;;;;;;1847937;77;21172;-75
2023/04/22 09:54:30;;;;;;;34.18;28.62;;;38.10;44.10;;;;;;1882420;76;21097;-76
2023/04/22 09:57:02;;;;;;;34.38;30.48;;;38.10;44.40;;;;;;1879885;75;22080;-76
2023/04/22 09:59:35;;;;;;;34.48;30.72;;;38.00;44.30;;;;;;1850537;77;21136;-75
2023/04/22 10:02:09;;;;;;;37.73;31.65;;;38.00;43.80;;;;;;1879698;76;21610;-74
2023/04/22 10:04:39;;;;;;;34.83;31.17;;;38.00;44.10;;;;;;1877751;76;21087;-75
2023/04/22 10:07:10;;;;;;;40.20;32.48;;;38.00;44.10;;;;;;1861074;77;21669;-75
2023/04/22 10:09:42;;;;;;;34.80;31.20;;;38.00;44.50;;;;;;1798305;79;21163;-75
2023/04/22 10:12:13;;;;;;;35.28;31.60;;;38.00;45.50;;;;;;1882591;76;21242;-78
2023/04/22 10:14:45;;;;;;;35.17;30.23;;;38.00;44.70;;;;;;1876691;75;21064;-76
2023/04/22 10:17:19;;;;;;;36.10;31.20;;;38.00;44.80;;;;;;1867471;75;21177;-76
2023/04/22 10:19:51;;;;;;;33.58;30.20;;;37.90;44.80;;;;;;1880510;76;21080;-73
2023/04/22 10:22:22;;;;;;;34.13;29.70;;;37.90;44.60;;;;;;1882635;76;21225;-74
2023/04/22 10:24:54;;;;;;;34.25;30.62;;;37.90;44.90;;;;;;1875391;76;21103;-75
2023/04/22 10:27:32;;;;;;;33.95;30.17;;;37.80;44.90;;;;;;1840891;76;21151;-81
2023/04/22 10:30:02;;;;;;;34.43;30.25;;;37.80;44.90;;;;;;1811137;79;21216;-83
2023/04/22 10:32:35;;;;;;;36.35;30.70;;;37.80;45.10;;;;;;1826284;78;21166;-85
2023/04/22 10:35:13;;;;;;;36.30;31.85;;;37.80;45.20;;;;;;1821116;78;21152;-81
2023/04/22 10:37:48;;;;;;;35.33;31.33;;;37.70;44.90;;;;;;1843192;76;21094;-83
2023/04/22 10:40:21;;;;;;;38.80;31.05;;;37.70;44.80;;;;;;1806244;79;21721;-84
2023/04/22 10:42:54;;;;;;;33.95;30.60;;;37.80;44.70;;;;;;1842901;78;21244;-83
2023/04/22 10:45:26;;;;;;;34.23;30.37;;;37.70;44.70;;;;;;1843768;77;21115;-84
2023/04/22 10:47:58;;;;;;;33.42;29.95;;;37.60;44.50;;;;;;1847076;77;21222;-84
2023/04/22 10:50:32;;;;;;;35.43;30.10;;;37.60;44.70;;;;;;1831029;77;21154;-84
2023/04/22 10:53:05;;;;;;;35.52;31.62;;;37.60;45.00;;;;;;1820030;79;21215;-84
2023/04/22 10:55:55;;;;;;;42.15;34.43;;;37.60;45.10;;;;;;1809095;78;21157;-84
2023/04/22 10:58:26;;;;;;;40.88;32.83;;;37.50;45.40;;;;;;1847299;77;21591;-83
2023/04/22 11:01:01;;;;;;;37.78;33.63;;;37.50;45.50;;;;;;1839476;77;21106;-85
2023/04/22 11:03:30;;;;;;;38.13;33.98;;;37.50;45.60;;;;;;1835924;77;21122;-84
2023/04/22 11:06:15;;;;;;;40.03;33.65;;;37.50;45.70;;;;;;1846804;76;21122;-86
2023/04/22 11:08:50;;;;;;;41.50;32.00;;;37.40;45.70;;;;;;1855289;77;21226;-86
2023/04/22 11:11:21;;;;;;;38.85;32.50;;;37.40;45.60;;;;;;1853956;77;21174;-84
2023/04/22 11:13:54;;;;;;;129.75;39.65;;;37.40;45.80;;;;;;1847977;77;21599;-84
2023/04/22 11:16:25;;;;;;;48.33;32.75;;;37.30;46.00;;;;;;1838673;77;21228;-85
2023/04/22 11:18:57;;;;;;;37.60;31.07;;;37.30;46.10;;;;;;1837821;77;21661;-85
2023/04/22 11:21:28;;;;;;;37.65;32.85;;;37.30;45.90;;;;;;1852961;77;21548;-84
2023/04/22 11:24:04;;;;;;;40.88;34.23;;;37.30;46.30;;;;;;1852989;77;21075;-83
2023/04/22 11:26:34;;;;;;;39.58;32.58;;;37.20;46.30;;;;;;1853070;76;21171;-85
2023/04/22 11:29:05;;;;;;;43.17;33.15;;;37.20;46.40;;;;;;1858433;77;21177;-84
2023/04/22 11:31:36;;;;;;;36.38;32.38;;;37.20;46.60;;;;;;1825137;77;21125;-85
2023/04/22 11:34:09;;;;;;;38.35;32.50;;;37.10;46.50;;;;;;1841451;77;21063;-85
2023/04/22 11:36:45;;;;;;;34.67;31.17;;;37.10;46.30;;;;;;1859284;77;21087;-84
2023/04/22 11:39:17;;;;;;;37.10;32.70;;;37.10;46.50;;;;;;1859139;76;21169;-85
2023/04/22 11:41:48;;;;;;;39.20;33.80;;;37.10;46.60;;;;;;1828400;77;21133;-84
2023/04/22 11:44:21;;;;;;;39.20;34.40;;;37.10;46.70;;;;;;1854079;77;21692;-86
2023/04/22 11:46:52;;;;;;;37.75;32.83;;;37.00;46.80;;;;;;1858882;77;21147;-85
2023/04/22 11:49:25;;;;;;;41.18;35.23;;;37.00;47.00;;;;;;1857199;77;21121;-85
2023/04/22 11:51:56;;;;;;;44.48;38.50;;;37.00;47.70;;;;;;1842494;77;21095;-84
2023/04/22 11:54:32;;;;;;;45.67;34.58;;;36.90;47.10;;;;;;1858886;77;21084;-85
2023/04/22 11:57:08;;;;;;;37.95;33.92;;;36.80;47.10;;;;;;1853403;77;21221;-86
2023/04/22 11:59:39;;;;;;;39.20;34.13;;;36.90;47.20;;;;;;1818835;78;21171;-84
2023/04/22 12:02:11;;;;;;;38.60;33.83;;;36.90;47.20;;;;;;1794370;79;21120;-84
2023/04/22 12:04:43;;;;;;;39.53;35.30;;;36.80;47.30;;;;;;1851137;77;21142;-86
2023/04/22 12:07:15;;;;;;;42.80;36.70;;;36.80;47.30;;;;;;1827025;77;21649;-85
2023/04/22 12:09:48;;;;;;;41.45;35.55;;;36.80;47.50;;;;;;1817694;77;21131;-85
2023/04/22 12:12:19;;;;;;;38.00;33.90;;;36.80;47.60;;;;;;1846095;77;21154;-85
2023/04/22 12:14:50;;;;;;;41.33;35.92;;;36.70;47.70;;;;;;1839161;76;21165;-84
2023/04/22 12:17:26;;;;;;;41.85;36.08;;;36.80;47.90;;;;;;1829894;77;21138;-84
2023/04/22 12:19:58;;;;;;;41.98;34.75;;;36.80;48.10;;;;;;1819584;78;21220;-84
2023/04/22 12:22:30;;;;;;;40.48;35.40;;;36.70;48.10;;;;;;1851277;77;21076;-85
2023/04/22 12:25:01;;;;;;;39.18;35.13;;;36.70;48.20;;;;;;1851852;77;21151;-84
2023/04/22 12:27:33;;;;;;;39.90;35.73;;;36.70;48.70;;;;;;1857231;76;21620;-84
2023/04/22 12:30:04;;;;;;;42.93;36.77;;;36.70;48.30;;;;;;1834780;76;21653;-84
2023/04/22 12:32:36;;;;;;;42.67;35.30;;;36.60;48.40;;;;;;1822138;77;21146;-85
2023/04/22 12:35:07;;;;;;;44.13;35.50;;;36.60;48.50;;;;;;1836544;77;21142;-84
2023/04/22 12:37:38;;;;;;;41.23;35.10;;;36.60;48.60;;;;;;1820358;79;21357;-85
2023/04/22 12:40:10;;;;;;;48.48;37.73;;;36.60;48.60;;;;;;1798544;79;21108;-85
2023/04/22 12:42:41;;;;;;;41.73;35.68;;;36.50;48.80;;;;;;1823243;77;21224;-85
2023/04/22 12:45:13;;;;;;;43.48;37.10;;;36.50;48.90;;;;;;1814010;79;21091;-84
2023/04/22 12:47:45;;;;;;;42.15;37.63;;;36.50;49.00;;;;;;1846006;77;21172;-85
2023/04/22 12:50:16;;;;;;;41.15;36.28;;;36.50;49.80;;;;;;1812534;79;21195;-85